Time;durP1;ratioP1;P1;durP2;ratioP2;P2;SDS_P1;SDS_P2;PMS_P1;PMS_P2;Temp;Humidity;BMP_temperature;BMP_pressure;BME280_temperature;BME280_humidity;BME280_pressure;Samples;Min_cycle;Max_cycle;Signal;HPM_P1;HPM_P2
2024/01/03 00:01:42;;;;;;;67.60;41.22;;;7.70;99.90;;;;;;4901306;29;20498;-84
2024/01/03 00:04:13;;;;;;;69.78;41.45;;;7.70;99.90;;;;;;4916863;29;20171;-84
2024/01/03 00:06:41;;;;;;;62.80;39.75;;;7.70;99.90;;;;;;4908464;29;20124;-84
2024/01/03 00:09:09;;;;;;;79.03;43.90;;;7.80;99.90;;;;;;4940637;29;20094;-84
2024/01/03 00:11:36;;;;;;;70.80;41.45;;;7.80;99.90;;;;;;4926239;29;20024;-86
2024/01/03 00:14:13;;;;;;;65.43;39.58;;;7.80;99.90;;;;;;4945654;29;20070;-83
2024/01/03 00:16:39;;;;;;;65.25;39.35;;;7.90;99.90;;;;;;4960114;29;20039;-87
2024/01/03 00:19:14;;;;;;;66.03;38.95;;;8.00;99.90;;;;;;4947658;29;20016;-85
2024/01/03 00:21:41;;;;;;;67.90;40.80;;;8.10;99.90;;;;;;4947757;29;20030;-85
2024/01/03 00:24:12;;;;;;;63.08;40.30;;;8.30;99.90;;;;;;4928389;29;20032;-86
2024/01/03 00:26:40;;;;;;;67.70;40.88;;;8.30;99.90;;;;;;4919998;29;20139;-86
2024/01/03 00:29:26;;;;;;;63.40;38.53;;;8.30;99.90;;;;;;4935431;28;20028;-86
2024/01/03 00:31:52;;;;;;;62.38;37.03;;;8.40;99.90;;;;;;4935571;28;20553;-86
2024/01/03 00:34:22;;;;;;;54.92;34.55;;;8.40;99.90;;;;;;4952627;28;20035;-86
2024/01/03 00:36:53;;;;;;;53.60;33.50;;;8.40;99.90;;;;;;4952226;28;20055;-87
2024/01/03 00:39:40;;;;;;;54.80;35.92;;;8.50;99.90;;;;;;4938678;29;20036;-86
2024/01/03 00:42:08;;;;;;;50.80;33.42;;;8.50;99.90;;;;;;4955103;28;20052;-86
2024/01/03 00:44:34;;;;;;;48.30;30.70;;;8.50;99.90;;;;;;4956929;29;20074;-87
2024/01/03 00:47:01;;;;;;;42.60;29.98;;;8.60;99.90;;;;;;4922211;29;20048;-87
2024/01/03 00:49:27;;;;;;;42.25;28.63;;;8.60;99.90;;;;;;4938302;29;20103;-85
2024/01/03 00:51:54;;;;;;;43.05;29.15;;;8.70;99.90;;;;;;4922150;29;20039;-86
2024/01/03 00:54:22;;;;;;;39.10;27.77;;;8.60;99.90;;;;;;4966306;28;20026;-86
2024/01/03 00:56:50;;;;;;;38.40;26.63;;;8.60;99.90;;;;;;4960924;28;20120;-85
2024/01/03 00:59:17;;;;;;;36.47;27.40;;;8.60;99.90;;;;;;4961471;28;20031;-85
2024/01/03 01:01:45;;;;;;;39.45;26.75;;;8.60;99.90;;;;;;4961014;28;20524;-84
2024/01/03 01:04:13;;;;;;;34.85;24.75;;;8.60;99.90;;;;;;4961083;28;20038;-84
2024/01/03 01:06:41;;;;;;;37.58;25.58;;;8.50;99.90;;;;;;4960640;28;20062;-84
2024/01/03 01:09:08;;;;;;;29.92;21.75;;;8.40;99.90;;;;;;4959890;28;20628;-83
2024/01/03 01:11:36;;;;;;;29.90;22.15;;;8.50;99.90;;;;;;4940469;29;20036;-83
2024/01/03 01:14:03;;;;;;;34.05;23.25;;;8.50;99.90;;;;;;4924832;29;20054;-84
2024/01/03 01:16:30;;;;;;;32.45;21.85;;;8.40;99.90;;;;;;4940710;29;20027;-84
2024/01/03 01:18:56;;;;;;;24.88;21.95;;;8.40;99.90;;;;;;4931309;29;20023;-84
2024/01/03 01:21:22;;;;;;;23.17;19.52;;;8.40;99.90;;;;;;4908779;29;20130;-83
2024/01/03 01:23:49;;;;;;;25.60;20.77;;;8.40;99.90;;;;;;4937633;29;20063;-83
2024/01/03 01:26:16;;;;;;;28.40;21.50;;;8.30;99.90;;;;;;4937758;29;20039;-84
2024/01/03 01:28:43;;;;;;;22.73;19.15;;;8.30;99.90;;;;;;4937015;29;20033;-83
2024/01/03 01:31:10;;;;;;;26.00;19.38;;;8.30;99.90;;;;;;4937463;29;20031;-85
2024/01/03 01:33:39;;;;;;;22.83;18.83;;;8.20;99.90;;;;;;4937502;29;20473;-86
2024/01/03 01:36:05;;;;;;;18.00;16.00;;;8.20;99.90;;;;;;4937349;29;20040;-84
2024/01/03 01:38:32;;;;;;;18.25;16.33;;;8.20;99.90;;;;;;4947232;29;20473;-84
2024/01/03 01:40:58;;;;;;;17.75;15.43;;;8.20;99.90;;;;;;4956354;29;20040;-83
2024/01/03 01:43:25;;;;;;;19.48;16.15;;;8.20;99.90;;;;;;4937743;29;20062;-83
2024/01/03 01:45:51;;;;;;;22.25;17.13;;;8.10;99.90;;;;;;4956487;28;20049;-84
2024/01/03 01:48:19;;;;;;;19.88;16.50;;;8.10;99.90;;;;;;4947923;28;20485;-84
2024/01/03 01:50:45;;;;;;;21.38;17.00;;;8.10;99.90;;;;;;4921461;29;20067;-84
2024/01/03 01:53:13;;;;;;;20.90;16.73;;;8.10;99.90;;;;;;4921314;29;20046;-83
2024/01/03 01:55:40;;;;;;;17.92;16.05;;;8.10;99.90;;;;;;4921265;29;20070;-83
2024/01/03 01:58:09;;;;;;;24.70;16.83;;;8.10;99.90;;;;;;4915557;29;20541;-83
2024/01/03 02:00:39;;;;;;;23.75;16.73;;;8.10;99.90;;;;;;4917935;29;20495;-83
2024/01/03 02:03:06;;;;;;;24.20;16.40;;;8.10;99.90;;;;;;4918050;29;20040;-84
2024/01/03 02:05:34;;;;;;;19.90;16.55;;;7.90;99.90;;;;;;4917801;29;20043;-83
2024/01/03 02:08:01;;;;;;;22.20;17.67;;;7.90;99.90;;;;;;4922024;29;20088;-83
2024/01/03 02:10:28;;;;;;;18.55;16.55;;;7.80;99.90;;;;;;4936720;29;20051;-84
2024/01/03 02:12:54;;;;;;;17.92;16.00;;;7.80;99.90;;;;;;4920985;29;20032;-84
2024/01/03 02:15:23;;;;;;;19.65;16.75;;;7.70;99.90;;;;;;4921021;29;20050;-84
2024/01/03 02:17:51;;;;;;;20.23;17.38;;;7.70;99.90;;;;;;4918273;29;20039;-84
2024/01/03 02:20:17;;;;;;;19.80;16.90;;;7.60;99.90;;;;;;4917595;29;20028;-83
2024/01/03 02:22:44;;;;;;;28.38;18.58;;;7.60;99.90;;;;;;4917618;29;20042;-84
2024/01/03 02:25:10;;;;;;;22.48;18.08;;;7.60;99.90;;;;;;4917730;29;20127;-84
2024/01/03 02:27:37;;;;;;;27.88;20.35;;;7.60;99.90;;;;;;4933319;29;20458;-83
2024/01/03 02:30:05;;;;;;;31.15;21.60;;;7.60;99.90;;;;;;4919734;29;20035;-84
2024/01/03 02:32:31;;;;;;;27.17;20.33;;;7.60;99.90;;;;;;4936489;29;20027;-84
2024/01/03 02:34:57;;;;;;;25.17;21.17;;;7.60;99.90;;;;;;4936168;29;20095;-84
2024/01/03 02:37:26;;;;;;;28.73;21.58;;;7.60;99.90;;;;;;4936187;29;20055;-83
2024/01/03 02:39:52;;;;;;;27.48;19.88;;;7.60;99.90;;;;;;4918303;29;20123;-84
2024/01/03 02:42:18;;;;;;;26.75;20.38;;;7.60;99.90;;;;;;4919825;29;20028;-83
2024/01/03 02:44:44;;;;;;;28.00;20.80;;;7.50;99.90;;;;;;4905070;29;20050;-83
2024/01/03 02:47:11;;;;;;;27.00;20.10;;;7.50;99.90;;;;;;4920400;29;20039;-84
2024/01/03 02:49:37;;;;;;;26.83;20.02;;;7.50;99.90;;;;;;4935204;29;20034;-84
2024/01/03 02:52:04;;;;;;;31.08;20.65;;;7.60;99.90;;;;;;4931566;28;20073;-84
2024/01/03 02:54:31;;;;;;;25.42;20.48;;;7.60;99.90;;;;;;4958405;28;20027;-83
2024/01/03 02:56:57;;;;;;;28.73;19.73;;;7.60;99.90;;;;;;4958150;28;20034;-84
2024/01/03 02:59:27;;;;;;;24.08;19.08;;;7.50;99.90;;;;;;4947630;28;20024;-83
2024/01/03 03:01:53;;;;;;;23.75;18.95;;;7.50;99.90;;;;;;4920198;29;20028;-84
2024/01/03 03:04:22;;;;;;;26.52;19.08;;;7.50;99.90;;;;;;4929835;29;20031;-83
2024/01/03 03:06:49;;;;;;;26.23;18.77;;;7.40;99.90;;;;;;4939152;29;20035;-83
2024/01/03 03:09:15;;;;;;;28.58;19.00;;;7.40;99.90;;;;;;4930625;29;20504;-83
2024/01/03 03:11:42;;;;;;;29.10;20.83;;;7.40;99.90;;;;;;4923089;29;20031;-84
2024/01/03 03:14:10;;;;;;;23.20;18.60;;;7.50;99.90;;;;;;4924955;29;20127;-84
2024/01/03 03:16:36;;;;;;;30.08;20.35;;;7.50;99.90;;;;;;4939021;29;20118;-83
2024/01/03 03:19:03;;;;;;;29.95;20.63;;;7.60;99.90;;;;;;4923501;29;20075;-83
2024/01/03 03:21:30;;;;;;;35.53;22.80;;;7.60;99.90;;;;;;4919746;29;20038;-84
2024/01/03 03:23:56;;;;;;;25.88;20.48;;;7.70;99.90;;;;;;4926124;28;20074;-83
2024/01/03 03:26:23;;;;;;;30.02;19.83;;;7.60;99.90;;;;;;4958146;28;20050;-83
2024/01/03 03:28:50;;;;;;;28.77;20.92;;;7.60;99.90;;;;;;4942673;29;20040;-83
2024/01/03 03:31:17;;;;;;;27.92;21.73;;;7.60;99.90;;;;;;4918487;29;20462;-83
2024/01/03 03:33:43;;;;;;;31.58;21.60;;;7.50;99.90;;;;;;4919847;29;20047;-84
2024/01/03 03:36:13;;;;;;;32.97;21.90;;;7.50;99.90;;;;;;4935591;29;20064;-83
2024/01/03 03:38:40;;;;;;;33.05;21.52;;;7.50;99.90;;;;;;4919615;29;20024;-84
2024/01/03 03:41:11;;;;;;;30.38;20.50;;;7.40;99.90;;;;;;4930269;29;20532;-84
2024/01/03 03:43:39;;;;;;;32.55;22.42;;;7.30;99.90;;;;;;4951280;29;20075;-84
2024/01/03 03:46:10;;;;;;;30.52;22.05;;;7.30;99.90;;;;;;4919688;29;20091;-83
2024/01/03 03:48:37;;;;;;;28.83;22.27;;;7.20;99.90;;;;;;4919799;29;20031;-84
2024/01/03 03:51:04;;;;;;;39.80;24.65;;;7.20;99.90;;;;;;4954214;29;20024;-84
2024/01/03 03:53:31;;;;;;;39.05;26.83;;;7.10;99.90;;;;;;4923396;29;20477;-84
2024/01/03 03:55:57;;;;;;;32.72;24.02;;;7.10;99.90;;;;;;4923461;29;20035;-84
2024/01/03 03:58:27;;;;;;;42.80;27.08;;;7.00;99.90;;;;;;4923600;29;20028;-83
2024/01/03 04:00:53;;;;;;;38.30;25.58;;;7.00;99.90;;;;;;4923393;29;20122;-83
2024/01/03 04:03:19;;;;;;;34.45;24.85;;;7.00;99.90;;;;;;4923202;29;20031;-85
2024/01/03 04:05:46;;;;;;;39.25;25.92;;;6.90;99.90;;;;;;4907923;29;20036;-85
2024/01/03 04:08:12;;;;;;;31.17;23.30;;;6.90;99.90;;;;;;4920556;29;20032;-85
2024/01/03 04:10:39;;;;;;;33.67;24.70;;;6.90;99.90;;;;;;4920307;29;20020;-84
2024/01/03 04:13:05;;;;;;;34.75;23.90;;;6.90;99.90;;;;;;4920203;29;20091;-84
2024/01/03 04:15:32;;;;;;;35.42;23.35;;;6.90;99.90;;;;;;4919900;29;20031;-84
2024/01/03 04:17:59;;;;;;;35.80;23.45;;;6.90;99.90;;;;;;4938166;29;20040;-84
2024/01/03 04:20:30;;;;;;;33.22;22.45;;;6.90;99.90;;;;;;4923153;29;20115;-84
2024/01/03 04:22:57;;;;;;;36.75;23.08;;;6.90;99.90;;;;;;4923059;29;20039;-84
2024/01/03 04:25:24;;;;;;;26.63;20.88;;;6.90;99.90;;;;;;4931210;29;20039;-85
2024/01/03 04:27:50;;;;;;;29.63;21.42;;;6.80;99.90;;;;;;4954594;29;20406;-86
2024/01/03 04:30:16;;;;;;;33.05;21.45;;;6.80;99.90;;;;;;4923060;29;20024;-87
2024/01/03 04:32:43;;;;;;;27.25;18.75;;;6.80;99.90;;;;;;4923073;29;20442;-88
2024/01/03 04:35:09;;;;;;;29.50;20.30;;;6.90;99.90;;;;;;4922929;29;20149;-87
2024/01/03 04:37:36;;;;;;;23.40;18.38;;;6.90;99.90;;;;;;4922942;29;20027;-88
2024/01/03 04:40:03;;;;;;;28.52;17.60;;;6.90;99.90;;;;;;4922778;29;20032;-88
2024/01/03 04:42:29;;;;;;;19.70;16.52;;;7.00;99.90;;;;;;4922565;29;20068;-87
2024/01/03 04:44:55;;;;;;;21.10;16.63;;;7.00;99.90;;;;;;4938481;29;20070;-83
2024/01/03 04:47:22;;;;;;;25.58;17.67;;;6.90;99.90;;;;;;4930466;29;20031;-83
2024/01/03 04:49:48;;;;;;;22.83;16.42;;;6.90;99.90;;;;;;4973420;28;20027;-84
2024/01/03 04:52:14;;;;;;;18.98;16.58;;;6.80;99.90;;;;;;4951059;28;20214;-86
2024/01/03 04:54:41;;;;;;;22.08;16.85;;;6.90;99.90;;;;;;4922777;29;20030;-84
2024/01/03 04:57:07;;;;;;;19.73;17.25;;;6.90;99.90;;;;;;4938547;29;20023;-84
2024/01/03 04:59:34;;;;;;;20.15;15.43;;;6.90;99.90;;;;;;4922494;29;20032;-84
2024/01/03 05:02:00;;;;;;;21.55;17.08;;;6.90;99.90;;;;;;4918777;29;20036;-85
2024/01/03 05:04:30;;;;;;;22.02;16.63;;;6.80;99.90;;;;;;4919210;29;20024;-85
2024/01/03 05:06:58;;;;;;;20.73;16.60;;;6.80;99.90;;;;;;4919181;29;20047;-86
2024/01/03 05:09:24;;;;;;;21.52;16.58;;;6.90;99.90;;;;;;4903497;29;20123;-86
2024/01/03 05:11:50;;;;;;;28.20;17.10;;;6.90;99.90;;;;;;4934900;29;20123;-85
2024/01/03 05:14:17;;;;;;;20.90;16.38;;;6.80;99.90;;;;;;4918988;29;20470;-85
2024/01/03 05:16:43;;;;;;;25.30;16.80;;;6.80;99.90;;;;;;4919184;29;20035;-85
2024/01/03 05:19:09;;;;;;;19.73;15.98;;;6.80;99.90;;;;;;4918931;29;20028;-84
2024/01/03 05:21:36;;;;;;;22.08;16.48;;;6.80;99.90;;;;;;4919031;29;20100;-84
2024/01/03 05:24:02;;;;;;;18.10;16.20;;;6.90;99.90;;;;;;4918674;29;20024;-84
2024/01/03 05:26:29;;;;;;;19.00;16.55;;;6.90;99.90;;;;;;4918625;29;20055;-85
2024/01/03 05:28:55;;;;;;;25.90;19.08;;;6.90;99.90;;;;;;4918736;29;20035;-84
2024/01/03 05:31:23;;;;;;;23.60;17.25;;;6.90;99.90;;;;;;4918632;29;20063;-84
2024/01/03 05:33:49;;;;;;;26.48;19.13;;;6.90;99.90;;;;;;4918895;29;20025;-84
2024/01/03 05:36:19;;;;;;;21.13;17.77;;;6.90;99.90;;;;;;4956744;28;20531;-85
2024/01/03 05:38:45;;;;;;;22.70;18.33;;;7.00;99.90;;;;;;4956847;28;20035;-85
2024/01/03 05:41:12;;;;;;;24.48;19.02;;;7.00;99.90;;;;;;4972822;28;20106;-83
2024/01/03 05:43:38;;;;;;;24.90;18.05;;;7.00;99.90;;;;;;4943455;28;20063;-85
2024/01/03 05:46:06;;;;;;;22.85;18.20;;;7.10;99.90;;;;;;4937453;29;20071;-85
2024/01/03 05:48:32;;;;;;;18.73;16.17;;;7.20;99.90;;;;;;4937538;29;20028;-85
2024/01/03 05:51:02;;;;;;;25.48;16.83;;;7.20;99.90;;;;;;4953181;29;20028;-85
2024/01/03 05:53:29;;;;;;;20.13;16.90;;;7.30;99.90;;;;;;4937238;29;20035;-85
2024/01/03 05:55:56;;;;;;;23.23;16.67;;;7.40;99.90;;;;;;4953160;29;20492;-85
2024/01/03 05:58:22;;;;;;;18.50;16.58;;;7.50;99.90;;;;;;4937301;29;20046;-85
2024/01/03 06:00:49;;;;;;;22.52;16.33;;;7.50;99.90;;;;;;4953322;29;20378;-84
2024/01/03 06:03:15;;;;;;;22.25;15.40;;;7.60;99.90;;;;;;4930278;29;20028;-85
2024/01/03 06:05:42;;;;;;;19.60;16.67;;;7.60;99.90;;;;;;4933832;29;20047;-85
2024/01/03 06:08:09;;;;;;;23.85;17.05;;;7.70;99.90;;;;;;4933887;29;20028;-85
2024/01/03 06:10:41;;;;;;;22.92;16.17;;;7.80;99.90;;;;;;4933780;29;20083;-85
2024/01/03 06:13:11;;;;;;;21.75;16.98;;;7.90;99.90;;;;;;4933086;29;20504;-85
2024/01/03 06:15:38;;;;;;;20.33;15.60;;;8.00;99.90;;;;;;4933346;29;20035;-85
2024/01/03 06:18:05;;;;;;;23.20;17.02;;;8.00;99.90;;;;;;4921289;29;20033;-86
2024/01/03 06:20:31;;;;;;;21.33;15.90;;;7.90;99.90;;;;;;4926922;29;20080;-85
2024/01/03 06:22:58;;;;;;;17.92;15.30;;;8.00;99.90;;;;;;4933521;29;20489;-85
2024/01/03 06:25:24;;;;;;;21.17;15.30;;;8.00;99.90;;;;;;4933378;29;20036;-85
2024/01/03 06:27:53;;;;;;;21.33;15.82;;;8.20;99.90;;;;;;4933187;29;20036;-84
2024/01/03 06:30:20;;;;;;;23.58;17.60;;;8.20;99.90;;;;;;4933244;29;20020;-84
2024/01/03 06:32:47;;;;;;;22.25;17.83;;;8.20;99.90;;;;;;4933312;29;20043;-85
2024/01/03 06:35:13;;;;;;;24.73;17.38;;;8.20;99.90;;;;;;4933438;29;20115;-85
2024/01/03 06:37:43;;;;;;;24.77;17.35;;;8.20;99.90;;;;;;4933250;29;20031;-85
2024/01/03 06:40:10;;;;;;;21.90;15.20;;;8.30;99.90;;;;;;4926800;29;20024;-85
2024/01/03 06:42:37;;;;;;;18.30;16.50;;;8.30;99.90;;;;;;4918764;29;20044;-86
2024/01/03 06:45:04;;;;;;;24.88;17.67;;;8.40;99.90;;;;;;4917203;29;20043;-84
2024/01/03 06:47:31;;;;;;;24.60;16.63;;;8.40;99.90;;;;;;4917497;29;20028;-85
2024/01/03 06:49:57;;;;;;;18.20;16.35;;;8.40;99.90;;;;;;4917298;29;20024;-85
2024/01/03 06:52:24;;;;;;;20.67;15.98;;;8.40;99.90;;;;;;4901484;29;20115;-85
2024/01/03 06:54:50;;;;;;;17.48;15.68;;;8.40;99.90;;;;;;4917220;29;20028;-85
2024/01/03 06:57:20;;;;;;;17.17;15.35;;;8.50;99.90;;;;;;4933356;29;20385;-85
2024/01/03 06:59:47;;;;;;;19.10;15.38;;;8.50;99.90;;;;;;4901641;29;20111;-85
2024/01/03 07:02:13;;;;;;;17.77;16.08;;;8.60;99.90;;;;;;4917094;29;20032;-86
2024/01/03 07:04:39;;;;;;;17.45;15.93;;;8.70;99.90;;;;;;4916862;29;20032;-85
2024/01/03 07:07:06;;;;;;;25.13;17.85;;;8.80;99.90;;;;;;4916889;29;20521;-85
2024/01/03 07:09:33;;;;;;;22.60;15.88;;;8.80;99.90;;;;;;4917015;29;20501;-85
2024/01/03 07:12:00;;;;;;;16.77;14.80;;;8.80;99.90;;;;;;4901284;29;20040;-85
2024/01/03 07:14:27;;;;;;;15.95;14.40;;;9.00;99.90;;;;;;4916682;29;20024;-86
2024/01/03 07:16:53;;;;;;;16.75;14.90;;;9.10;99.90;;;;;;4916746;29;20553;-85
2024/01/03 07:19:23;;;;;;;17.38;14.23;;;9.20;99.90;;;;;;4916946;29;20028;-85
2024/01/03 07:21:50;;;;;;;16.08;13.88;;;9.30;99.90;;;;;;4917106;29;20036;-85
2024/01/03 07:24:17;;;;;;;15.02;13.50;;;9.40;99.90;;;;;;4916803;29;20029;-85
2024/01/03 07:26:43;;;;;;;19.92;13.70;;;9.50;99.90;;;;;;4897951;29;20064;-85
2024/01/03 07:29:10;;;;;;;14.82;13.32;;;9.60;99.90;;;;;;4897938;29;20032;-85
2024/01/03 07:31:37;;;;;;;13.95;12.57;;;9.70;99.90;;;;;;4897966;29;20028;-85
2024/01/03 07:34:03;;;;;;;14.25;12.80;;;9.80;99.90;;;;;;4897913;29;20032;-86
2024/01/03 07:36:30;;;;;;;13.00;11.82;;;10.00;99.90;;;;;;4899064;29;20028;-85
2024/01/03 07:38:58;;;;;;;12.52;11.38;;;10.10;99.90;;;;;;4916717;29;20028;-85
2024/01/03 07:41:24;;;;;;;13.35;12.13;;;10.30;99.90;;;;;;4900975;29;20485;-85
2024/01/03 07:43:51;;;;;;;13.65;12.32;;;10.40;99.90;;;;;;4931045;29;20079;-85
2024/01/03 07:46:18;;;;;;;12.55;11.40;;;10.50;99.90;;;;;;4919694;29;20044;-84
2024/01/03 07:48:45;;;;;;;13.20;12.00;;;10.80;99.90;;;;;;4932251;29;20033;-85
2024/01/03 07:51:12;;;;;;;16.05;12.70;;;10.90;99.90;;;;;;4900863;29;20032;-85
2024/01/03 07:53:38;;;;;;;15.93;12.32;;;11.00;99.90;;;;;;4916554;29;20028;-87
2024/01/03 07:56:08;;;;;;;18.13;13.40;;;11.20;99.90;;;;;;4929255;29;20075;-82
2024/01/03 07:58:34;;;;;;;14.75;13.43;;;11.30;99.90;;;;;;4934832;29;20066;-83
2024/01/03 08:01:01;;;;;;;15.75;13.10;;;11.50;99.90;;;;;;4924858;29;20464;-83
2024/01/03 08:03:28;;;;;;;14.25;12.65;;;11.60;99.90;;;;;;4916191;29;20367;-89
2024/01/03 08:05:55;;;;;;;16.15;12.95;;;11.70;99.90;;;;;;4916262;29;20040;-82
2024/01/03 08:08:22;;;;;;;23.63;13.95;;;11.80;99.90;;;;;;4919085;29;20035;-83
2024/01/03 08:10:48;;;;;;;16.48;12.52;;;11.90;99.90;;;;;;4934892;29;20036;-82
2024/01/03 08:13:14;;;;;;;13.98;12.63;;;12.00;99.90;;;;;;4935972;29;20035;-83
2024/01/03 08:15:41;;;;;;;18.25;13.00;;;12.10;99.90;;;;;;4919083;29;20038;-81
2024/01/03 08:18:08;;;;;;;14.75;13.25;;;12.20;99.90;;;;;;4950463;28;20028;-81
2024/01/03 08:20:35;;;;;;;14.18;12.82;;;12.30;99.90;;;;;;4930085;29;20087;-87
2024/01/03 08:23:01;;;;;;;14.60;13.13;;;12.30;99.90;;;;;;4915430;29;20429;-81
2024/01/03 08:25:28;;;;;;;16.85;13.80;;;12.30;99.90;;;;;;4933629;29;20173;-80
2024/01/03 08:27:54;;;;;;;15.90;13.55;;;12.40;99.90;;;;;;4935977;29;20031;-82
2024/01/03 08:30:23;;;;;;;16.60;13.75;;;12.50;99.90;;;;;;4934433;29;20055;-90
2024/01/03 08:32:49;;;;;;;15.98;13.68;;;12.70;99.90;;;;;;4918769;29;20135;-81
2024/01/03 08:35:16;;;;;;;18.30;14.15;;;12.80;99.90;;;;;;4944432;28;20034;-81
2024/01/03 08:37:45;;;;;;;14.95;13.68;;;12.80;99.90;;;;;;4956064;28;20051;-80
2024/01/03 08:40:12;;;;;;;15.55;13.98;;;12.90;99.90;;;;;;4953761;28;20469;-81
2024/01/03 08:42:38;;;;;;;15.73;14.23;;;13.00;99.90;;;;;;4937045;29;20379;-81
2024/01/03 08:45:05;;;;;;;15.68;14.07;;;13.10;99.90;;;;;;4917845;29;20035;-82
2024/01/03 08:47:32;;;;;;;18.30;15.43;;;13.20;99.90;;;;;;4929810;29;20027;-82
2024/01/03 08:49:58;;;;;;;20.83;15.00;;;13.20;99.90;;;;;;4940485;29;20039;-81
2024/01/03 08:52:26;;;;;;;18.73;15.75;;;13.30;99.90;;;;;;4938884;29;20099;-84
2024/01/03 08:54:53;;;;;;;18.58;16.60;;;13.40;99.90;;;;;;4929322;29;20031;-81
2024/01/03 08:57:19;;;;;;;19.88;16.20;;;13.40;99.90;;;;;;4945232;29;20028;-81
2024/01/03 08:59:46;;;;;;;18.20;16.52;;;13.50;99.90;;;;;;4937354;29;20035;-81
2024/01/03 09:02:13;;;;;;;18.65;16.75;;;13.70;99.90;;;;;;4938752;29;20094;-81
2024/01/03 09:04:41;;;;;;;18.15;16.40;;;13.80;99.90;;;;;;4961032;28;20358;-81
2024/01/03 09:07:08;;;;;;;24.98;17.95;;;13.90;99.90;;;;;;4976753;28;20062;-81
2024/01/03 09:09:34;;;;;;;23.52;17.80;;;14.00;99.90;;;;;;4959535;28;20034;-80
2024/01/03 09:12:01;;;;;;;19.90;17.88;;;14.10;99.90;;;;;;4947196;29;20074;-80
2024/01/03 09:14:27;;;;;;;19.50;17.67;;;14.20;99.90;;;;;;4942093;28;20031;-81
2024/01/03 09:16:54;;;;;;;20.23;18.08;;;14.30;99.90;;;;;;4975662;28;20448;-82
2024/01/03 09:19:21;;;;;;;20.08;18.05;;;14.30;99.90;;;;;;4957157;28;20037;-80
2024/01/03 09:21:49;;;;;;;19.40;17.50;;;14.40;99.90;;;;;;4945330;29;20039;-80
2024/01/03 09:24:18;;;;;;;21.60;17.85;;;14.60;99.90;;;;;;4946500;28;20489;-80
2024/01/03 09:26:47;;;;;;;22.63;18.02;;;14.70;99.90;;;;;;4948260;28;20122;-81
2024/01/03 09:29:15;;;;;;;19.70;18.00;;;14.90;99.90;;;;;;4921128;29;20393;-84
2024/01/03 09:31:44;;;;;;;21.00;18.10;;;15.20;99.90;;;;;;4940803;29;20031;-81
2024/01/03 09:34:11;;;;;;;20.15;18.10;;;15.20;99.90;;;;;;4938652;29;20067;-80
2024/01/03 09:36:38;;;;;;;20.90;19.00;;;15.40;99.90;;;;;;4935722;29;20512;-81
2024/01/03 09:39:04;;;;;;;25.58;18.67;;;15.60;99.90;;;;;;4919757;29;20039;-81
2024/01/03 09:41:32;;;;;;;22.00;19.67;;;15.70;99.90;;;;;;4937495;29;20028;-82
2024/01/03 09:44:01;;;;;;;20.77;18.70;;;15.70;99.90;;;;;;4933197;29;20157;-80
2024/01/03 09:46:28;;;;;;;20.23;18.58;;;15.70;99.90;;;;;;4932595;29;20078;-79
2024/01/03 09:48:56;;;;;;;20.92;18.33;;;15.70;99.90;;;;;;4931720;29;20036;-81
2024/01/03 09:51:22;;;;;;;23.35;18.40;;;15.70;99.90;;;;;;4932960;29;20483;-80
2024/01/03 09:53:53;;;;;;;21.42;18.30;;;15.80;99.90;;;;;;4918570;29;20028;-82
2024/01/03 09:56:20;;;;;;;19.95;18.25;;;15.90;99.90;;;;;;4949080;29;20086;-81
2024/01/03 09:58:50;;;;;;;20.50;18.65;;;15.80;99.90;;;;;;4935450;29;20504;-81
2024/01/03 10:01:17;;;;;;;21.17;19.38;;;15.90;99.90;;;;;;4937051;29;20114;-82
2024/01/03 10:03:44;;;;;;;21.45;19.65;;;16.00;99.90;;;;;;4951939;29;20075;-82
2024/01/03 10:06:15;;;;;;;40.45;30.50;;;15.90;99.90;;;;;;4921390;29;20046;-84
2024/01/03 10:08:56;;;;;;;26.38;22.30;;;15.80;99.90;;;;;;4933430;29;20417;-85
2024/01/03 10:11:23;;;;;;;21.45;19.58;;;15.70;99.90;;;;;;4917565;29;20032;-81
2024/01/03 10:13:52;;;;;;;21.38;19.65;;;15.80;99.90;;;;;;4917807;29;20028;-87
2024/01/03 10:16:26;;;;;;;21.58;20.00;;;15.70;99.90;;;;;;4917613;29;20088;-85
2024/01/03 10:19:16;;;;;;;22.48;20.80;;;15.70;99.90;;;;;;4917639;29;20517;-84
2024/01/03 10:21:54;;;;;;;21.88;20.27;;;15.80;99.90;;;;;;4917537;29;20047;-85
2024/01/03 10:24:23;;;;;;;23.42;21.27;;;15.90;99.90;;;;;;4933334;29;20024;-82
2024/01/03 10:26:51;;;;;;;23.65;21.92;;;16.00;99.90;;;;;;4913699;29;20040;-83
2024/01/03 10:29:19;;;;;;;23.85;21.85;;;16.10;99.90;;;;;;4898155;29;20028;-83
2024/01/03 10:31:47;;;;;;;25.70;22.75;;;16.30;99.90;;;;;;4898012;29;20040;-83
2024/01/03 10:34:20;;;;;;;23.20;21.55;;;16.40;99.90;;;;;;4898024;29;20048;-83
2024/01/03 10:36:49;;;;;;;23.95;21.88;;;16.40;99.90;;;;;;4951725;29;20123;-84
2024/01/03 10:39:18;;;;;;;24.38;22.17;;;16.40;99.90;;;;;;4923490;29;20072;-83
2024/01/03 10:41:47;;;;;;;23.40;21.27;;;16.50;99.90;;;;;;4932628;29;20102;-83
2024/01/03 10:44:16;;;;;;;22.75;20.45;;;16.50;99.90;;;;;;4949565;29;20139;-82
2024/01/03 10:46:43;;;;;;;23.70;21.23;;;16.60;99.90;;;;;;4950864;29;20047;-84
2024/01/03 10:49:11;;;;;;;22.23;20.17;;;16.60;99.90;;;;;;4935234;29;20016;-83
2024/01/03 10:51:43;;;;;;;24.30;21.73;;;16.60;99.90;;;;;;4951360;28;20090;-83
2024/01/03 10:54:17;;;;;;;24.77;22.35;;;16.50;99.90;;;;;;4935488;29;20023;-83
2024/01/03 10:56:49;;;;;;;25.10;22.48;;;16.50;99.90;;;;;;4937337;29;20130;-83
2024/01/03 10:59:17;;;;;;;26.30;23.08;;;16.60;99.90;;;;;;4947767;28;20047;-83
2024/01/03 11:01:53;;;;;;;24.50;22.02;;;16.60;99.90;;;;;;4949452;29;20078;-83
2024/01/03 11:04:36;;;;;;;22.23;20.02;;;16.70;99.90;;;;;;4935762;29;20054;-83
2024/01/03 11:07:12;;;;;;;26.92;23.92;;;16.60;99.90;;;;;;4951481;28;20401;-84
2024/01/03 11:09:41;;;;;;;25.05;22.65;;;16.60;99.90;;;;;;4934193;29;20047;-83
2024/01/03 11:12:17;;;;;;;40.78;31.33;;;16.50;99.90;;;;;;4950360;29;20024;-83
2024/01/03 11:14:45;;;;;;;22.63;20.83;;;16.60;99.90;;;;;;4934326;29;20031;-82
2024/01/03 11:17:11;;;;;;;23.10;20.88;;;16.70;99.90;;;;;;4935221;29;20488;-83
2024/01/03 11:19:38;;;;;;;21.25;19.60;;;16.70;99.90;;;;;;4936151;29;20035;-82
2024/01/03 11:22:06;;;;;;;22.73;20.30;;;16.70;99.90;;;;;;4935117;29;20024;-84
2024/01/03 11:24:32;;;;;;;20.85;19.30;;;16.70;99.90;;;;;;4951425;29;20055;-84
2024/01/03 11:27:06;;;;;;;21.23;19.70;;;16.70;99.90;;;;;;4934649;28;20040;-83
2024/01/03 11:29:36;;;;;;;21.17;19.60;;;16.60;99.90;;;;;;4916723;29;20038;-82
2024/01/03 11:32:07;;;;;;;21.08;19.52;;;16.60;99.90;;;;;;4926971;29;20397;-83
2024/01/03 11:34:45;;;;;;;20.67;18.98;;;16.60;99.90;;;;;;4935264;29;20064;-83
2024/01/03 11:37:11;;;;;;;29.17;20.17;;;16.60;99.90;;;;;;4919926;28;20067;-82
2024/01/03 11:39:43;;;;;;;21.20;19.60;;;16.60;99.90;;;;;;4919049;29;20123;-82
2024/01/03 11:42:16;;;;;;;21.17;19.45;;;16.50;99.90;;;;;;4950272;29;20031;-83
2024/01/03 11:44:43;;;;;;;21.60;19.88;;;16.50;99.90;;;;;;4913026;28;20477;-83
2024/01/03 11:47:13;;;;;;;21.67;19.85;;;16.40;99.90;;;;;;4924197;29;20069;-81
2024/01/03 11:49:40;;;;;;;21.25;19.45;;;16.30;99.90;;;;;;4919372;29;20032;-81
2024/01/03 11:52:07;;;;;;;23.60;21.35;;;16.30;99.90;;;;;;4937909;29;20031;-83
2024/01/03 11:54:34;;;;;;;22.13;20.27;;;16.30;99.90;;;;;;4952955;28;20051;-83
2024/01/03 11:57:10;;;;;;;23.08;20.70;;;16.30;99.90;;;;;;4922343;29;20038;-82
2024/01/03 11:59:36;;;;;;;57.33;36.15;;;16.30;99.90;;;;;;4934846;29;20031;-83
2024/01/03 12:02:03;;;;;;;25.42;23.00;;;16.40;99.90;;;;;;4936225;29;20034;-83
2024/01/03 12:04:30;;;;;;;34.25;28.58;;;16.50;99.90;;;;;;4948237;29;20059;-83
2024/01/03 12:06:59;;;;;;;25.20;23.08;;;16.50;99.90;;;;;;4968520;28;20062;-82
2024/01/03 12:09:29;;;;;;;21.63;19.98;;;16.50;99.90;;;;;;4947802;29;20031;-83
2024/01/03 12:11:56;;;;;;;21.35;19.88;;;16.50;99.90;;;;;;4937904;29;20035;-83
2024/01/03 12:14:23;;;;;;;23.00;21.10;;;16.40;99.90;;;;;;4956428;29;20038;-84
2024/01/03 12:16:53;;;;;;;22.15;20.48;;;16.30;99.90;;;;;;4938139;29;20036;-85
2024/01/03 12:19:28;;;;;;;22.50;20.77;;;16.30;99.90;;;;;;4938803;29;20074;-81
2024/01/03 12:21:55;;;;;;;23.05;21.35;;;16.30;99.90;;;;;;4924229;29;20400;-83
2024/01/03 12:24:44;;;;;;;24.70;22.70;;;16.30;99.90;;;;;;4955370;29;20051;-82
2024/01/03 12:27:19;;;;;;;23.20;21.27;;;16.30;99.90;;;;;;4937077;29;20070;-82
2024/01/03 12:29:45;;;;;;;22.83;20.98;;;16.40;99.90;;;;;;4956239;29;20027;-81
2024/01/03 12:32:15;;;;;;;22.00;20.48;;;16.50;99.90;;;;;;4956192;29;20031;-82
2024/01/03 12:34:41;;;;;;;23.20;21.15;;;16.50;99.90;;;;;;4938499;28;20117;-82
2024/01/03 12:37:08;;;;;;;22.67;20.77;;;16.50;99.90;;;;;;4959764;28;20019;-83